Time;durP1;ratioP1;P1;durP2;ratioP2;P2;SDS_P1;SDS_P2;PMS_P1;PMS_P2;Temp;Humidity;BMP_temperature;BMP_pressure;BME280_temperature;BME280_humidity;BME280_pressure;Samples;Min_cycle;Max_cycle;Signal;HPM_P1;HPM_P2
2021/08/14 00:00:19;;;;;;;18.50;9.23;;;;;;;17.78;58.99;99491.31;125667;1097;103409;-81
2021/08/14 00:03:10;;;;;;;21.20;9.80;;;;;;;17.82;59.13;99495.41;125691;1096;103026;-79
2021/08/14 00:05:39;;;;;;;19.57;8.90;;;;;;;17.84;59.30;99489.89;125707;1093;103018;-78
2021/08/14 00:08:10;;;;;;;19.67;9.53;;;;;;;17.85;59.06;99496.97;125668;1093;102993;-81
2021/08/14 00:10:43;;;;;;;19.40;9.30;;;;;;;17.87;58.84;99494.97;125688;1093;103007;-81
2021/08/14 00:13:12;;;;;;;19.43;9.30;;;;;;;17.88;59.03;99493.98;125675;1093;102938;-82
2021/08/14 00:15:43;;;;;;;19.90;9.60;;;;;;;17.91;59.12;99492.82;125699;1093;103045;-82
2021/08/14 00:18:14;;;;;;;18.77;9.40;;;;;;;17.93;59.23;99493.52;125710;1093;103457;-80
2021/08/14 00:20:42;;;;;;;23.20;10.50;;;;;;;17.92;59.59;99484.62;125730;1093;102913;-86
2021/08/14 00:23:10;;;;;;;21.07;9.53;;;;;;;17.90;59.28;99481.23;125786;1092;103032;-87
2021/08/14 00:25:39;;;;;;;19.67;8.63;;;;;;;17.89;59.29;99489.43;125770;1093;102919;-86
2021/08/14 00:28:09;;;;;;;18.63;9.17;;;;;;;17.88;59.36;99490.42;125757;1093;103020;-86
2021/08/14 00:30:38;;;;;;;24.10;10.55;;;;;;;17.85;59.07;99483.52;125742;1093;103004;-87
2021/08/14 00:33:09;;;;;;;18.70;8.83;;;;;;;17.81;59.35;99480.25;125790;1096;103255;-85
2021/08/14 00:35:38;;;;;;;18.67;9.43;;;;;;;17.79;59.37;99482.24;125701;1093;103080;-82
2021/08/14 00:38:09;;;;;;;21.37;10.10;;;;;;;17.82;59.78;99483.80;125697;1093;102916;-81
2021/08/14 00:40:42;;;;;;;19.13;9.20;;;;;;;17.81;59.53;99480.25;125730;1092;102929;-81
2021/08/14 00:43:13;;;;;;;20.05;9.05;;;;;;;17.83;59.44;99478.27;125735;1096;103012;-82
2021/08/14 00:45:45;;;;;;;17.97;8.63;;;;;;;17.85;59.39;99484.34;125729;1096;103636;-82
2021/08/14 00:48:36;;;;;;;19.53;9.00;;;;;;;17.86;59.50;99493.28;125688;1094;103065;-82
2021/08/14 00:51:08;;;;;;;19.93;8.87;;;;;;;17.86;59.72;99491.42;125697;1096;103064;-79
2021/08/14 00:53:39;;;;;;;19.63;8.50;;;;;;;17.85;59.82;99484.34;125676;1095;102974;-80
2021/08/14 00:56:08;;;;;;;21.93;9.97;;;;;;;17.81;59.99;99480.25;125744;1095;103277;-82
2021/08/14 00:58:39;;;;;;;20.90;9.40;;;;;;;17.78;59.77;99474.33;125671;1096;103188;-80
2021/08/14 01:01:08;;;;;;;18.97;9.27;;;;;;;17.72;59.96;99473.09;125666;1096;103065;-80
2021/08/14 01:03:39;;;;;;;18.53;9.43;;;;;;;17.64;60.28;99475.67;125674;1096;102938;-80
2021/08/14 01:06:07;;;;;;;19.03;9.10;;;;;;;17.61;60.62;99473.27;125662;1095;102916;-80
2021/08/14 01:08:36;;;;;;;20.53;9.07;;;;;;;17.56;60.28;99457.55;125727;1096;103432;-81
2021/08/14 01:11:09;;;;;;;19.03;9.27;;;;;;;17.51;60.39;99459.87;125670;1096;103061;-81
2021/08/14 01:13:37;;;;;;;18.30;8.43;;;;;;;17.47;61.13;99461.98;125756;1096;103034;-82
2021/08/14 01:16:09;;;;;;;19.00;8.90;;;;;;;17.40;60.93;99459.05;125734;1095;103248;-81
2021/08/14 01:18:49;;;;;;;19.70;9.13;;;;;;;17.35;61.33;99453.25;125688;1096;102919;-82
2021/08/14 01:21:22;;;;;;;17.93;8.30;;;;;;;17.33;61.47;99447.17;125751;1095;102997;-84
2021/08/14 01:23:55;;;;;;;18.43;9.20;;;;;;;17.31;61.17;99449.16;125754;1096;103065;-86
2021/08/14 01:26:26;;;;;;;20.68;8.68;;;;;;;17.33;61.04;99452.55;125731;1096;102916;-83
2021/08/14 01:28:54;;;;;;;18.57;9.20;;;;;;;17.39;61.17;99456.48;125801;1095;103094;-82
2021/08/14 01:31:23;;;;;;;18.50;8.27;;;;;;;17.45;61.41;99450.53;125759;1096;102943;-83
2021/08/14 01:33:57;;;;;;;18.37;8.43;;;;;;;17.50;61.30;99447.41;125681;1096;103090;-82
2021/08/14 01:36:28;;;;;;;17.80;8.20;;;;;;;17.54;61.18;99454.16;125738;1096;103030;-81
2021/08/14 01:39:02;;;;;;;17.60;8.03;;;;;;;17.59;61.25;99454.58;125706;1096;102918;-83
2021/08/14 01:41:30;;;;;;;17.37;8.20;;;;;;;17.60;61.50;99450.89;125737;1094;103089;-82
2021/08/14 01:44:05;;;;;;;18.20;7.83;;;;;;;17.63;61.43;99458.66;125706;1096;103076;-81
2021/08/14 01:46:41;;;;;;;15.93;7.80;;;;;;;17.66;61.26;99452.99;125772;1096;103096;-84
2021/08/14 01:49:11;;;;;;;17.75;7.60;;;;;;;17.70;61.21;99461.63;125750;1096;103016;-85
2021/08/14 01:51:40;;;;;;;19.27;8.70;;;;;;;17.70;61.10;99451.70;125735;1096;103189;-84
2021/08/14 01:54:08;;;;;;;17.87;8.10;;;;;;;17.71;61.69;99447.19;125767;1096;103019;-85
2021/08/14 01:56:40;;;;;;;18.43;7.97;;;;;;;17.68;61.28;99439.41;125802;1096;103633;-86
2021/08/14 01:59:08;;;;;;;18.07;7.87;;;;;;;17.63;61.33;99442.53;125800;1096;102908;-81
2021/08/14 02:01:39;;;;;;;20.90;8.35;;;;;;;17.62;61.39;99435.45;125739;1095;103431;-79
2021/08/14 02:04:11;;;;;;;15.50;7.67;;;;;;;17.62;61.52;99427.38;125720;1097;103060;-84
2021/08/14 02:06:42;;;;;;;16.50;7.80;;;;;;;17.63;61.37;99428.25;125706;1096;103030;-82
2021/08/14 02:09:10;;;;;;;16.03;7.63;;;;;;;17.65;61.85;99424.40;125733;1096;102919;-82
2021/08/14 02:11:38;;;;;;;16.77;7.60;;;;;;;17.68;61.62;99425.96;125778;1095;102916;-82
2021/08/14 02:14:09;;;;;;;18.67;7.57;;;;;;;17.69;61.45;99423.11;125715;1096;102936;-81
2021/08/14 02:16:38;;;;;;;15.17;7.30;;;;;;;17.73;62.00;99428.19;125726;1096;103463;-82
2021/08/14 02:19:06;;;;;;;16.37;7.53;;;;;;;17.76;61.76;99426.04;125765;1096;102939;-81
2021/08/14 02:21:40;;;;;;;16.93;7.83;;;;;;;17.79;61.92;99419.53;125651;1096;102916;-82
2021/08/14 02:24:08;;;;;;;18.43;6.93;;;;;;;17.81;62.05;99414.84;125708;1095;103025;-80
2021/08/14 02:26:37;;;;;;;15.20;6.80;;;;;;;17.83;61.46;99420.92;125703;1096;103569;-81
2021/08/14 02:29:06;;;;;;;17.70;7.43;;;;;;;17.85;62.04;99418.94;125658;1093;102911;-80
2021/08/14 02:31:37;;;;;;;14.10;6.80;;;;;;;17.88;62.06;99415.95;125656;1097;103003;-81
2021/08/14 02:34:05;;;;;;;15.13;6.77;;;;;;;17.93;61.87;99418.17;125661;1094;103065;-81
2021/08/14 02:36:33;;;;;;;15.13;6.73;;;;;;;17.96;61.60;99424.09;125705;1096;103119;-83
2021/08/14 02:39:05;;;;;;;14.27;6.83;;;;;;;18.00;61.66;99416.61;125689;1093;103031;-82
2021/08/14 02:41:34;;;;;;;15.77;7.00;;;;;;;18.04;61.88;99423.39;125629;1094;103014;-81
2021/08/14 02:44:02;;;;;;;13.53;6.70;;;;;;;18.07;62.01;99422.22;125696;1093;102894;-83
2021/08/14 02:46:32;;;;;;;18.93;7.90;;;;;;;18.10;61.66;99416.53;125651;1096;103007;-81
2021/08/14 02:49:01;;;;;;;16.00;6.97;;;;;;;18.11;61.84;99424.48;125734;1096;102931;-82
2021/08/14 02:51:32;;;;;;;15.55;7.05;;;;;;;18.12;61.72;99422.62;125776;1094;103020;-82
2021/08/14 02:54:00;;;;;;;15.93;7.10;;;;;;;18.14;62.01;99423.31;125658;1093;102943;-81
2021/08/14 02:56:31;;;;;;;15.63;6.63;;;;;;;18.14;61.98;99421.45;125632;1093;103071;-81
2021/08/14 02:58:59;;;;;;;14.17;7.20;;;;;;;18.15;61.81;99419.63;125654;1093;103061;-78
2021/08/14 03:01:30;;;;;;;17.80;7.27;;;;;;;18.14;61.95;99421.45;125673;1093;102997;-79
2021/08/14 03:04:00;;;;;;;14.80;6.60;;;;;;;18.17;61.72;99424.84;125690;1094;103198;-82
2021/08/14 03:06:31;;;;;;;16.37;7.53;;;;;;;18.17;62.10;99422.15;125634;1092;103028;-79
2021/08/14 03:09:00;;;;;;;16.10;6.97;;;;;;;18.14;61.91;99416.06;125651;1093;103091;-80
2021/08/14 03:11:28;;;;;;;17.07;7.17;;;;;;;18.17;61.73;99416.77;125652;1093;103065;-76
2021/08/14 03:13:59;;;;;;;16.23;7.53;;;;;;;18.15;61.82;99415.07;125689;1093;103013;-79
2021/08/14 03:16:27;;;;;;;15.00;6.83;;;;;;;18.13;62.17;99414.41;125692;1093;103013;-80
2021/08/14 03:18:58;;;;;;;16.07;6.60;;;;;;;18.13;62.01;99414.41;125659;1093;103668;-80
2021/08/14 03:21:27;;;;;;;16.43;7.00;;;;;;;18.13;61.95;99422.48;125728;1093;102914;-79
2021/08/14 03:23:57;;;;;;;14.63;7.00;;;;;;;18.11;62.10;99421.78;125675;1095;102943;-81
2021/08/14 03:26:26;;;;;;;14.33;6.53;;;;;;;18.08;61.63;99424.78;125689;1096;103009;-78
2021/08/14 03:28:54;;;;;;;15.33;7.10;;;;;;;18.06;61.60;99424.08;125694;1096;102949;-82
2021/08/14 03:31:26;;;;;;;14.97;6.97;;;;;;;18.05;62.10;99417.00;125678;1096;103010;-80
2021/08/14 03:33:55;;;;;;;15.20;7.10;;;;;;;18.02;61.71;99427.20;125690;1094;103115;-79
2021/08/14 03:36:23;;;;;;;16.90;7.40;;;;;;;18.02;61.88;99422.69;125698;1093;102920;-80
2021/08/14 03:38:51;;;;;;;17.57;7.50;;;;;;;18.04;61.85;99427.91;125730;1096;102976;-80
2021/08/14 03:41:20;;;;;;;12.77;6.70;;;;;;;18.03;62.17;99435.15;125710;1095;102943;-82
2021/08/14 03:43:51;;;;;;;15.50;7.20;;;;;;;18.03;61.72;99431.59;125734;1092;102965;-82
2021/08/14 03:46:29;;;;;;;13.90;6.70;;;;;;;18.03;62.00;99427.08;125714;1096;102919;-84
2021/08/14 03:49:20;;;;;;;13.83;6.70;;;;;;;18.01;61.51;99439.83;125713;1093;102933;-82
2021/08/14 03:51:55;;;;;;;19.17;7.00;;;;;;;17.99;62.10;99434.59;125700;1093;103007;-85
2021/08/14 03:54:25;;;;;;;13.83;6.93;;;;;;;17.99;62.07;99441.83;125679;1096;102985;-84
2021/08/14 03:56:56;;;;;;;13.50;6.83;;;;;;;18.02;62.01;99437.97;125703;1093;102921;-81
2021/08/14 03:59:24;;;;;;;13.90;7.13;;;;;;;18.06;61.69;99440.23;125760;1093;102914;-84
2021/08/14 04:01:57;;;;;;;16.93;7.03;;;;;;;18.09;62.18;99445.31;125736;1093;103104;-83
2021/08/14 04:04:25;;;;;;;13.73;6.73;;;;;;;18.12;61.90;99436.08;125717;1093;102999;-83
2021/08/14 04:06:54;;;;;;;14.07;6.63;;;;;;;18.17;62.16;99439.16;125780;1092;102939;-83
2021/08/14 04:09:23;;;;;;;15.67;7.13;;;;;;;18.20;62.10;99440.69;125723;1093;102916;-84
2021/08/14 04:11:52;;;;;;;13.87;6.60;;;;;;;18.25;62.02;99441.09;125752;1091;103009;-82
2021/08/14 04:14:20;;;;;;;18.10;7.10;;;;;;;18.28;62.19;99435.40;125869;1093;103087;-81
2021/08/14 04:16:49;;;;;;;15.07;6.93;;;;;;;18.32;62.37;99439.48;125712;1093;102994;-82
2021/08/14 04:19:17;;;;;;;14.00;6.83;;;;;;;18.37;62.18;99441.70;125717;1093;103210;-81
2021/08/14 04:21:47;;;;;;;14.03;6.90;;;;;;;18.40;62.34;99449.48;125676;1093;103170;-80
2021/08/14 04:24:15;;;;;;;12.53;6.73;;;;;;;18.43;62.45;99450.04;125651;1093;102994;-81
2021/08/14 04:26:44;;;;;;;17.43;6.60;;;;;;;18.45;62.26;99445.34;125609;1093;102975;-81
2021/08/14 04:29:13;;;;;;;15.13;7.00;;;;;;;18.49;62.18;99436.97;125622;1093;102911;-79
2021/08/14 04:31:42;;;;;;;14.13;6.80;;;;;;;18.52;61.99;99432.10;125599;1093;103188;-80
2021/08/14 04:34:10;;;;;;;14.37;7.00;;;;;;;18.55;62.12;99429.10;125604;1093;103022;-79
2021/08/14 04:36:38;;;;;;;16.00;7.00;;;;;;;18.58;62.34;99436.88;125611;1093;102924;-81
2021/08/14 04:39:07;;;;;;;15.30;6.97;;;;;;;18.62;62.46;99431.19;125629;1096;102914;-84
2021/08/14 04:41:35;;;;;;;12.90;6.37;;;;;;;18.66;62.39;99432.57;125635;1093;101287;-81
2021/08/14 04:44:04;;;;;;;15.57;7.00;;;;;;;18.68;62.30;99431.39;125627;1094;103018;-80
2021/08/14 04:46:32;;;;;;;11.55;6.30;;;;;;;18.69;62.54;99427.70;125618;1093;103170;-80
2021/08/14 04:49:01;;;;;;;16.90;7.07;;;;;;;18.73;62.48;99431.78;125618;1096;103035;-80
2021/08/14 04:51:29;;;;;;;14.60;6.57;;;;;;;18.78;62.44;99431.30;125600;1093;103065;-81
2021/08/14 04:53:58;;;;;;;15.40;8.17;;;;;;;18.82;62.46;99435.38;125677;1093;103018;-83
2021/08/14 04:56:26;;;;;;;14.70;6.90;;;;;;;18.86;62.27;99434.07;125677;1096;104459;-82
2021/08/14 04:58:55;;;;;;;14.73;6.70;;;;;;;18.90;62.47;99434.63;125617;1093;103009;-83
2021/08/14 05:01:23;;;;;;;18.63;7.70;;;;;;;18.94;62.04;99427.92;125658;1093;103406;-84
2021/08/14 05:03:52;;;;;;;16.47;7.07;;;;;;;18.99;62.15;99430.98;125618;1092;103034;-81
2021/08/14 05:06:21;;;;;;;13.80;6.93;;;;;;;19.03;62.53;99435.06;125661;1093;103009;-82
2021/08/14 05:08:49;;;;;;;13.47;6.87;;;;;;;19.09;62.02;99439.00;125708;1093;103002;-82
2021/08/14 05:11:18;;;;;;;14.87;6.77;;;;;;;19.15;62.17;99434.81;125631;1093;103158;-85
2021/08/14 05:13:46;;;;;;;12.20;6.30;;;;;;;19.19;62.34;99431.63;125723;1093;103034;-86
2021/08/14 05:16:14;;;;;;;15.93;6.97;;;;;;;19.23;62.08;99436.71;125894;1093;103031;-84
2021/08/14 05:18:43;;;;;;;14.63;6.83;;;;;;;19.29;61.98;99442.33;125707;1093;101662;-84
2021/08/14 05:21:11;;;;;;;17.03;6.87;;;;;;;19.34;62.46;99442.70;125816;1094;103000;-82
2021/08/14 05:23:40;;;;;;;16.83;7.60;;;;;;;19.40;61.96;99429.56;125634;1093;103071;-83
2021/08/14 05:26:08;;;;;;;15.57;7.17;;;;;;;19.48;62.29;99435.87;125658;1093;102913;-80
2021/08/14 05:28:36;;;;;;;16.97;7.27;;;;;;;19.56;62.17;99434.22;125612;1093;103005;-77
2021/08/14 05:31:06;;;;;;;14.63;6.63;;;;;;;19.63;62.25;99437.94;125675;1092;102919;-81
2021/08/14 05:33:34;;;;;;;15.23;6.57;;;;;;;19.69;62.28;99439.17;125684;1092;103076;-81
2021/08/14 05:36:03;;;;;;;14.93;7.07;;;;;;;19.76;62.33;99438.34;125651;1096;103081;-80
2021/08/14 05:38:31;;;;;;;12.67;6.37;;;;;;;19.85;62.34;99436.52;125719;1093;102908;-72
2021/08/14 05:40:59;;;;;;;14.17;6.70;;;;;;;19.95;62.33;99439.14;125686;1092;102916;-69
2021/08/14 05:43:29;;;;;;;13.30;6.37;;;;;;;20.02;62.07;99437.45;125704;1093;102969;-73
2021/08/14 05:45:57;;;;;;;17.13;7.53;;;;;;;20.10;62.42;99438.48;125662;1094;102985;-70
2021/08/14 05:48:26;;;;;;;16.03;6.57;;;;;;;20.17;62.22;99432.28;125664;1093;103066;-75
2021/08/14 05:50:54;;;;;;;15.33;6.57;;;;;;;20.26;62.30;99430.44;125723;1093;103011;-73
2021/08/14 05:53:24;;;;;;;14.70;6.97;;;;;;;20.36;62.20;99432.98;125634;1093;102998;-69
2021/08/14 05:55:54;;;;;;;16.17;6.80;;;;;;;20.46;62.09;99441.78;125671;1093;103364;-70
2021/08/14 05:58:24;;;;;;;15.87;7.17;;;;;;;20.57;62.15;99428.97;125683;1093;103348;-68
2021/08/14 06:00:54;;;;;;;15.17;6.57;;;;;;;20.63;62.06;99430.97;125628;1093;103067;-69
2021/08/14 06:03:22;;;;;;;16.00;6.80;;;;;;;20.66;62.07;99428.80;125672;1095;102897;-70
2021/08/14 06:05:51;;;;;;;18.90;6.60;;;;;;;20.71;62.17;99427.45;125657;1095;103027;-69
2021/08/14 06:08:19;;;;;;;12.10;5.83;;;;;;;20.77;62.20;99424.11;125718;1093;103009;-72
2021/08/14 06:10:49;;;;;;;12.90;6.05;;;;;;;20.84;61.96;99422.39;125651;1093;103000;-71
2021/08/14 06:13:17;;;;;;;14.27;6.10;;;;;;;20.92;62.46;99435.08;125588;1094;102915;-69
2021/08/14 06:15:46;;;;;;;12.70;6.70;;;;;;;20.95;61.99;99438.27;125697;1092;103534;-71
2021/08/14 06:18:15;;;;;;;11.97;6.63;;;;;;;21.01;61.86;99435.91;125625;1093;103409;-69
2021/08/14 06:20:45;;;;;;;14.97;7.27;;;;;;;21.10;62.19;99440.30;125608;1093;103029;-70
2021/08/14 06:23:14;;;;;;;16.83;6.77;;;;;;;21.20;61.97;99437.41;125617;1092;102949;-71
2021/08/14 06:25:42;;;;;;;16.60;6.87;;;;;;;21.36;61.99;99437.38;125580;1093;103138;-69
2021/08/14 06:28:12;;;;;;;13.90;6.30;;;;;;;21.55;62.04;99438.85;125626;1093;102919;-70
2021/08/14 06:30:42;;;;;;;15.63;6.87;;;;;;;21.75;61.86;99443.05;125668;1093;102942;-69
2021/08/14 06:33:10;;;;;;;19.17;6.80;;;;;;;21.92;61.75;99444.64;125720;1093;102913;-80
2021/08/14 06:35:39;;;;;;;13.00;6.57;;;;;;;22.08;61.74;99438.30;125731;1093;103004;-77
2021/08/14 06:38:07;;;;;;;11.10;5.80;;;;;;;22.23;61.37;99430.25;125637;1093;102913;-77
2021/08/14 06:40:36;;;;;;;14.53;6.70;;;;;;;22.36;61.61;99431.53;125694;1093;102930;-70
2021/08/14 06:43:06;;;;;;;14.87;6.63;;;;;;;22.49;61.74;99431.83;125655;1093;102916;-72
2021/08/14 06:45:34;;;;;;;13.33;6.00;;;;;;;22.61;61.60;99437.66;125678;1092;103038;-72
2021/08/14 06:48:04;;;;;;;13.23;6.37;;;;;;;22.73;61.38;99430.80;125726;1095;102996;-72
2021/08/14 06:50:33;;;;;;;13.77;6.17;;;;;;;22.83;61.26;99429.67;125614;1094;103104;-71
2021/08/14 06:53:03;;;;;;;12.27;6.17;;;;;;;22.94;61.15;99444.69;125593;1095;102943;-70
2021/08/14 06:55:31;;;;;;;14.00;6.30;;;;;;;23.02;61.11;99436.48;125672;1096;102972;-70
2021/08/14 06:57:59;;;;;;;13.50;6.33;;;;;;;23.12;61.45;99437.05;125713;1093;103068;-72
2021/08/14 07:00:28;;;;;;;15.10;7.00;;;;;;;23.25;60.86;99433.72;125687;1093;103153;-69
2021/08/14 07:03:01;;;;;;;18.50;6.73;;;;;;;23.41;61.29;99427.30;125612;1093;103386;-69
2021/08/14 07:05:30;;;;;;;12.73;6.30;;;;;;;23.62;61.22;99433.84;125640;1092;102913;-70
2021/08/14 07:07:59;;;;;;;10.40;5.70;;;;;;;23.79;60.69;99427.19;125598;1095;102930;-69
2021/08/14 07:10:27;;;;;;;15.60;6.90;;;;;;;23.94;60.54;99429.02;125691;1095;103001;-70
2021/08/14 07:12:55;;;;;;;12.10;6.23;;;;;;;24.03;60.75;99427.09;125706;1093;102760;-69
2021/08/14 07:15:24;;;;;;;11.03;6.03;;;;;;;24.17;60.70;99425.36;125593;1092;103086;-70
2021/08/14 07:17:52;;;;;;;13.40;6.60;;;;;;;24.34;60.71;99428.69;125605;1093;103018;-71
2021/08/14 07:20:20;;;;;;;13.73;6.57;;;;;;;24.41;60.38;99421.44;125675;1093;103065;-69
2021/08/14 07:22:49;;;;;;;11.47;6.20;;;;;;;24.76;60.13;99418.88;125702;1093;102919;-69
2021/08/14 07:25:18;;;;;;;12.30;6.50;;;;;;;25.45;59.71;99412.89;125637;1092;102916;-72
2021/08/14 07:27:46;;;;;;;13.47;5.90;;;;;;;26.84;58.67;99413.57;125605;1096;103073;-75
2021/08/14 07:30:15;;;;;;;11.93;6.13;;;;;;;28.18;58.42;99404.20;125699;1095;102949;-72
2021/08/14 07:32:43;;;;;;;13.27;6.10;;;;;;;29.44;58.42;99408.06;125633;1095;102918;-73
2021/08/14 07:35:12;;;;;;;9.73;5.40;;;;;;;30.77;57.96;99416.67;125618;1093;102915;-72
2021/08/14 07:37:59;;;;;;;11.87;5.43;;;;;;;32.02;57.58;99412.89;125598;1093;103020;-82
2021/08/14 07:40:29;;;;;;;15.53;5.77;;;;;;;32.51;57.83;99398.67;125930;1093;103007;-78
2021/08/14 07:42:58;;;;;;;17.03;6.23;;;;;;;33.01;57.40;99409.98;125728;1093;103090;-80
2021/08/14 07:45:27;;;;;;;12.87;5.50;;;;;;;34.06;56.39;99411.14;125644;1093;103015;-79
2021/08/14 07:47:56;;;;;;;10.05;5.40;;;;;;;34.84;55.62;99421.02;125705;1092;103009;-82
2021/08/14 07:50:29;;;;;;;10.67;5.50;;;;;;;35.52;55.46;99414.02;125596;1096;103126;-77
2021/08/14 07:52:59;;;;;;;;;;;;;;;36.16;53.92;99414.86;125645;1096;103014;-74
2021/08/14 07:55:31;;;;;;;10.43;4.97;;;;;;;36.63;54.28;99424.92;125661;1095;103039;-74
2021/08/14 07:58:09;;;;;;;11.80;5.20;;;;;;;36.90;53.41;99421.02;125731;1095;102987;-76
2021/08/14 08:00:39;;;;;;;13.37;5.60;;;;;;;37.00;53.19;99427.70;125708;1096;103055;-75
2021/08/14 08:03:10;;;;;;;11.03;5.50;;;;;;;37.54;52.94;99423.45;125640;1094;103004;-75
2021/08/14 08:05:39;;;;;;;10.08;5.23;;;;;;;37.98;52.44;99419.95;125617;1095;102926;-73
2021/08/14 08:08:11;;;;;;;10.57;5.40;;;;;;;38.34;51.67;99420.84;125631;1095;102942;-72
2021/08/14 08:10:39;;;;;;;10.65;5.68;;;;;;;38.74;51.41;99415.27;125637;1095;103097;-70
2021/08/14 08:13:09;;;;;;;11.60;6.20;;;;;;;38.57;51.27;99419.31;125767;1096;103106;-75
2021/08/14 08:15:38;;;;;;;9.70;5.43;;;;;;;37.98;50.80;99419.95;125657;1095;103100;-79
2021/08/14 08:18:06;;;;;;;11.25;5.20;;;;;;;37.26;50.43;99414.63;125593;1096;103163;-79
2021/08/14 08:20:34;;;;;;;11.07;5.13;;;;;;;36.99;49.14;99421.31;125658;1095;103687;-76
2021/08/14 08:23:03;;;;;;;13.40;5.17;;;;;;;37.05;48.82;99417.43;125639;1095;103134;-77
2021/08/14 08:25:34;;;;;;;15.10;5.10;;;;;;;36.91;48.19;99421.84;125670;1095;103454;-72
2021/08/14 08:28:03;;;;;;;9.93;5.33;;;;;;;37.06;47.66;99419.09;125651;1095;102940;-76
2021/08/14 08:30:33;;;;;;;134.27;17.60;;;;;;;37.43;47.50;99414.30;125588;1094;103063;-72
2021/08/14 08:33:01;;;;;;;16.83;6.00;;;;;;;37.77;46.73;99410.02;125621;1095;103064;-76
2021/08/14 08:35:30;;;;;;;14.47;5.37;;;;;;;37.88;46.27;99408.86;125640;1095;102957;-75
2021/08/14 08:38:00;;;;;;;13.83;5.95;;;;;;;38.09;46.17;99414.35;125658;1094;102919;-76
2021/08/14 08:40:37;;;;;;;9.73;4.97;;;;;;;38.45;45.39;99421.63;125668;1094;103036;-76
2021/08/14 08:43:06;;;;;;;9.13;5.10;;;;;;;38.27;44.35;99410.07;125620;1095;103093;-82
2021/08/14 08:45:35;;;;;;;10.93;4.73;;;;;;;38.02;43.47;99409.09;125762;1095;103073;-80
2021/08/14 08:48:08;;;;;;;8.57;4.57;;;;;;;37.80;42.85;99410.30;126069;1094;103097;-78
2021/08/14 08:50:39;;;;;;;10.23;5.57;;;;;;;37.75;43.33;99407.55;125679;1094;103097;-75
2021/08/14 08:53:08;;;;;;;9.75;4.73;;;;;;;37.93;42.56;99402.47;125648;1095;102926;-80
2021/08/14 08:55:37;;;;;;;12.23;4.83;;;;;;;38.14;42.62;99394.85;125645;1095;102911;-85
2021/08/14 08:58:05;;;;;;;9.93;4.90;;;;;;;38.12;41.30;99406.27;125958;1095;103038;-74
2021/08/14 09:00:34;;;;;;;11.50;4.90;;;;;;;38.22;41.79;99402.58;125688;1094;102982;-75
2021/08/14 09:03:07;;;;;;;9.97;4.90;;;;;;;38.48;40.72;99402.45;125664;1095;103076;-78
2021/08/14 09:05:51;;;;;;;12.13;4.80;;;;;;;38.45;40.52;99408.58;125652;1094;103012;-75
2021/08/14 09:08:20;;;;;;;8.73;4.57;;;;;;;38.20;39.43;99398.45;125638;1094;103150;-79
2021/08/14 09:11:06;;;;;;;8.07;4.40;;;;;;;38.10;37.62;99399.34;125707;1094;103148;-79
2021/08/14 09:13:35;;;;;;;10.80;5.40;;;;;;;38.02;38.31;99391.63;125721;1095;103095;-82
2021/08/14 09:16:21;;;;;;;11.13;5.40;;;;;;;37.97;38.31;99384.98;125722;1096;103007;-81
2021/08/14 09:18:58;;;;;;;11.37;4.90;;;;;;;38.08;38.56;99384.92;125645;1095;103568;-76
2021/08/14 09:21:41;;;;;;;12.03;5.13;;;;;;;38.39;38.31;99381.95;125752;1095;102943;-82
2021/08/14 09:24:30;;;;;;;11.13;4.80;;;;;;;38.53;38.10;99377.38;125794;1096;103066;-77
2021/08/14 09:27:01;;;;;;;11.87;4.60;;;;;;;38.53;36.28;99371.81;125752;1094;103004;-75
2021/08/14 09:29:37;;;;;;;7.88;4.60;;;;;;;37.96;35.61;99363.04;125791;1095;103013;-77
2021/08/14 09:32:10;;;;;;;6.77;4.00;;;;;;;37.63;35.29;99368.19;125676;1094;102938;-77
2021/08/14 09:34:48;;;;;;;9.37;4.80;;;;;;;37.53;35.99;99356.02;125681;1094;102739;-80
2021/08/14 09:37:19;;;;;;;9.20;4.87;;;;;;;37.64;35.77;99356.83;125739;1094;103033;-76
2021/08/14 09:39:52;;;;;;;11.60;5.10;;;;;;;37.15;35.16;99357.53;125603;1095;103012;-83
2021/08/14 09:42:21;;;;;;;8.53;4.63;;;;;;;36.68;35.09;99362.31;125639;1095;102916;-78
2021/08/14 09:45:16;;;;;;;19.73;4.83;;;;;;;36.64;35.16;99368.41;125678;1095;102916;-82
2021/08/14 09:47:52;;;;;;;8.07;4.70;;;;;;;36.47;35.17;99365.06;125664;1095;102936;-80
2021/08/14 09:50:34;;;;;;;8.97;4.80;;;;;;;36.58;34.52;99363.97;125687;1095;103116;-81
2021/08/14 09:53:32;;;;;;;10.23;4.47;;;;;;;36.73;34.54;99365.89;125611;1096;103074;-75
2021/08/14 09:56:12;;;;;;;11.53;5.17;;;;;;;36.93;34.74;99361.41;125621;1096;101730;-72
2021/08/14 09:58:41;;;;;;;7.95;4.65;;;;;;;36.90;34.76;99360.05;125619;1095;103132;-79
2021/08/14 10:01:10;;;;;;;9.03;5.00;;;;;;;36.83;34.85;99362.27;125665;1095;103578;-76
2021/08/14 10:03:41;;;;;;;10.03;4.73;;;;;;;36.58;34.57;99352.05;125738;1094;103068;-77
2021/08/14 10:06:11;;;;;;;8.50;4.30;;;;;;;36.32;34.37;99350.06;127583;1094;100809;-75
2021/08/14 10:08:42;;;;;;;11.57;4.80;;;;;;;35.95;33.60;99344.75;126206;1095;103013;-77
2021/08/14 10:11:13;;;;;;;9.85;4.78;;;;;;;35.50;33.41;99349.85;125642;1095;103000;-73
2021/08/14 10:13:47;;;;;;;10.93;5.43;;;;;;;35.27;34.27;99349.18;125643;1095;103442;-73
2021/08/14 10:16:18;;;;;;;12.30;5.93;;;;;;;35.16;34.13;99345.54;125756;1094;103038;-74
2021/08/14 10:18:53;;;;;;;11.25;5.05;;;;;;;35.02;34.27;99350.72;125628;1095;102982;-74
2021/08/14 10:21:25;;;;;;;12.43;5.30;;;;;;;34.91;34.55;99348.95;125730;1094;103024;-73
2021/08/14 10:23:56;;;;;;;12.07;5.00;;;;;;;34.65;34.20;99355.13;125648;1094;103068;-79
2021/08/14 10:26:30;;;;;;;11.03;5.60;;;;;;;34.27;33.51;99356.98;125586;1096;102903;-80
2021/08/14 10:28:59;;;;;;;13.93;5.50;;;;;;;33.87;33.86;99355.44;125668;1095;103071;-85
2021/08/14 10:31:30;;;;;;;10.17;5.50;;;;;;;33.58;33.63;99352.91;125653;1095;103071;-78
2021/08/14 10:34:19;;;;;;;12.33;5.27;;;;;;;33.33;34.07;99349.55;125668;1095;102914;-79
2021/08/14 10:36:49;;;;;;;10.60;5.43;;;;;;;33.20;34.36;99355.42;125744;1094;103029;-78
2021/08/14 10:39:30;;;;;;;19.10;6.17;;;;;;;33.13;34.08;99344.59;126073;1096;102913;-81
2021/08/14 10:42:05;;;;;;;9.83;4.53;;;;;;;33.02;34.34;99342.77;125755;1094;102990;-76
2021/08/14 10:44:46;;;;;;;12.77;5.37;;;;;;;32.86;34.30;99348.05;125549;1095;102980;-82
2021/08/14 10:47:33;;;;;;;9.13;4.80;;;;;;;32.74;34.16;99339.03;125475;1095;103094;-84
2021/08/14 10:50:02;;;;;;;11.90;5.07;;;;;;;32.69;34.56;99341.70;125489;1095;103051;-82
2021/08/14 10:52:33;;;;;;;12.85;5.20;;;;;;;32.71;34.76;99345.05;125500;1093;103151;-80
2021/08/14 10:55:06;;;;;;;12.53;5.43;;;;;;;32.68;34.66;99334.53;125465;1095;102972;-82
2021/08/14 10:57:47;;;;;;;10.87;5.43;;;;;;;32.62;34.77;99334.45;125382;1095;102991;-85
2021/08/14 11:00:21;;;;;;;11.93;6.08;;;;;;;32.55;34.84;99331.02;125615;1095;103065;-76
2021/08/14 11:02:57;;;;;;;11.90;5.27;;;;;;;32.49;35.08;99332.02;125750;1094;103107;-84
2021/08/14 11:05:32;;;;;;;11.77;5.70;;;;;;;32.41;35.00;99327.77;125563;1096;103072;-84
2021/08/14 11:08:02;;;;;;;8.97;4.87;;;;;;;32.32;35.09;99330.11;125684;1095;103090;-80
2021/08/14 11:10:31;;;;;;;13.30;5.10;;;;;;;32.22;35.19;99318.89;125747;1094;103486;-79
2021/08/14 11:13:00;;;;;;;10.50;5.03;;;;;;;32.15;35.19;99318.21;125721;1095;102946;-80
2021/08/14 11:15:40;;;;;;;8.10;4.93;;;;;;;32.07;35.38;99317.53;125700;1096;102931;-80
2021/08/14 11:18:09;;;;;;;11.67;5.53;;;;;;;31.98;35.43;99309.94;125678;1095;102961;-80
2021/08/14 11:20:40;;;;;;;13.17;6.13;;;;;;;31.96;35.73;99314.84;125681;1096;102918;-80
2021/08/14 11:23:29;;;;;;;15.60;6.17;;;;;;;31.89;35.55;99304.83;126132;1095;103005;-83
2021/08/14 11:26:03;;;;;;;15.53;6.70;;;;;;;31.87;35.68;99315.23;126114;1094;103009;-82